createdAt,value
2023-07-30T00:00:41.552Z,63.03
2023-07-30T00:03:29.963Z,63.72
2023-07-30T00:05:58.484Z,63.98
2023-07-30T00:08:26.607Z,63.87
2023-07-30T00:10:57.608Z,64.45
2023-07-30T00:13:29.238Z,64.34
2023-07-30T00:15:57.527Z,64.17
2023-07-30T00:18:25.862Z,64.38
2023-07-30T00:20:54.338Z,64.79
2023-07-30T00:23:25.094Z,64.78
2023-07-30T00:25:53.312Z,64.89
2023-07-30T00:28:21.564Z,64.90
2023-07-30T00:30:50.410Z,65.04
2023-07-30T00:33:19.020Z,65.25
2023-07-30T00:35:47.578Z,65.42
2023-07-30T00:38:17.336Z,65.49
2023-07-30T00:40:46.117Z,65.62
2023-07-30T00:43:14.308Z,65.96
2023-07-30T00:45:45.175Z,66.09
2023-07-30T00:48:14.607Z,66.81
2023-07-30T00:50:43.361Z,67.76
2023-07-30T00:53:15.457Z,67.80
2023-07-30T00:55:44.136Z,67.93
2023-07-30T00:58:12.941Z,67.78
2023-07-30T01:00:42.580Z,67.55
2023-07-30T01:03:11.057Z,67.62
2023-07-30T01:05:39.340Z,67.41
2023-07-30T01:08:07.809Z,67.33
2023-07-30T01:10:37.593Z,67.64
2023-07-30T01:13:08.293Z,67.95
2023-07-30T01:15:39.054Z,67.68
2023-07-30T01:18:07.896Z,67.69
2023-07-30T01:20:36.273Z,67.63
2023-07-30T01:23:04.585Z,67.76
2023-07-30T01:25:37.717Z,67.61
2023-07-30T01:28:14.284Z,67.93
2023-07-30T01:30:44.334Z,67.84
2023-07-30T01:33:19.787Z,67.88
2023-07-30T01:35:48.505Z,67.89
2023-07-30T01:38:18.218Z,68.32
2023-07-30T01:40:46.797Z,68.42
2023-07-30T01:43:15.209Z,68.41
2023-07-30T01:45:43.277Z,68.74
2023-07-30T01:48:14.730Z,68.58
2023-07-30T01:50:44.363Z,68.82
2023-07-30T01:53:12.632Z,69.17
2023-07-30T01:55:44.628Z,68.86
2023-07-30T01:58:14.331Z,68.95
2023-07-30T02:00:42.615Z,69.05
2023-07-30T02:03:10.947Z,68.91
2023-07-30T02:05:39.507Z,68.64
2023-07-30T02:08:08.053Z,68.88
2023-07-30T02:10:36.452Z,69.17
2023-07-30T02:13:04.870Z,69.33
2023-07-30T02:15:33.193Z,69.36
2023-07-30T02:18:01.607Z,69.16
2023-07-30T02:20:29.807Z,69.24
2023-07-30T02:22:57.918Z,69.41
2023-07-30T02:25:26.142Z,69.93
2023-07-30T02:27:54.534Z,70.06
2023-07-30T02:30:23.027Z,69.94
2023-07-30T02:32:51.826Z,70.20
2023-07-30T02:35:20.356Z,70.20
2023-07-30T02:37:50.120Z,70.13
2023-07-30T02:40:18.867Z,70.19
2023-07-30T02:42:47.196Z,70.09
2023-07-30T02:45:15.657Z,70.45
2023-07-30T02:47:43.985Z,70.32
2023-07-30T02:50:12.425Z,70.30
2023-07-30T02:52:40.638Z,70.27
2023-07-30T02:55:09.532Z,70.24
2023-07-30T02:57:37.699Z,70.16
2023-07-30T03:00:07.139Z,70.26
2023-07-30T03:02:35.477Z,70.34
2023-07-30T03:05:05.262Z,70.56
2023-07-30T03:07:33.520Z,70.64
2023-07-30T03:10:02.430Z,70.66
2023-07-30T03:12:30.621Z,70.71
2023-07-30T03:14:59.033Z,70.93
2023-07-30T03:17:27.604Z,71.13
2023-07-30T03:19:55.846Z,71.26
2023-07-30T03:22:23.972Z,70.93
2023-07-30T03:24:52.257Z,70.82
2023-07-30T03:27:22.095Z,70.87
2023-07-30T03:29:50.404Z,70.94
2023-07-30T03:32:18.876Z,71.04
2023-07-30T03:34:47.204Z,71.35
2023-07-30T03:37:15.998Z,71.15
2023-07-30T03:39:44.505Z,71.21
2023-07-30T03:42:12.589Z,71.06
2023-07-30T03:44:40.740Z,71.02
2023-07-30T03:47:08.861Z,71.13
2023-07-30T03:49:38.592Z,71.04
2023-07-30T03:52:07.866Z,71.00
2023-07-30T03:54:36.185Z,70.92
2023-07-30T03:57:04.914Z,70.83
2023-07-30T03:59:33.064Z,70.80
2023-07-30T04:02:01.783Z,70.71
2023-07-30T04:04:30.101Z,70.60
2023-07-30T04:06:58.390Z,70.53
2023-07-30T04:09:27.148Z,70.46
2023-07-30T04:11:55.414Z,70.67
2023-07-30T04:14:24.070Z,70.48
2023-07-30T04:16:52.478Z,70.54
2023-07-30T04:19:22.292Z,70.36
2023-07-30T04:21:50.587Z,70.36
2023-07-30T04:24:20.087Z,70.51
2023-07-30T04:26:48.595Z,70.25
2023-07-30T04:29:17.883Z,70.08
2023-07-30T04:31:47.053Z,70.12
2023-07-30T04:34:16.338Z,69.91
2023-07-30T04:36:44.996Z,70.01
2023-07-30T04:39:14.236Z,69.99
2023-07-30T04:41:42.678Z,69.90
2023-07-30T04:44:11.326Z,69.84
2023-07-30T04:46:39.902Z,69.68
2023-07-30T04:49:08.310Z,69.62
2023-07-30T04:51:37.396Z,69.40
2023-07-30T04:54:05.969Z,69.19
2023-07-30T04:56:34.328Z,69.13
2023-07-30T04:59:03.157Z,68.81
2023-07-30T05:01:32.528Z,68.45
2023-07-30T05:04:00.871Z,68.25
2023-07-30T05:06:29.190Z,67.34
2023-07-30T05:08:57.883Z,65.94
2023-07-30T05:11:26.010Z,65.20
2023-07-30T05:13:54.912Z,65.06
2023-07-30T05:16:23.381Z,64.29
2023-07-30T05:18:51.647Z,63.95
2023-07-30T05:21:20.144Z,64.00
2023-07-30T05:23:50.706Z,63.51
2023-07-30T05:26:18.767Z,63.29
2023-07-30T05:28:46.966Z,62.48
2023-07-30T05:31:16.152Z,62.22
2023-07-30T05:33:44.993Z,62.25
2023-07-30T05:36:13.618Z,61.79
2023-07-30T05:38:42.030Z,61.61
2023-07-30T05:41:10.449Z,61.42
2023-07-30T05:43:38.857Z,61.21
2023-07-30T05:46:09.596Z,61.05
2023-07-30T05:48:44.843Z,60.48
2023-07-30T05:51:14.852Z,60.00
2023-07-30T05:53:54.436Z,59.77
2023-07-30T05:56:28.382Z,59.17
2023-07-30T05:58:56.862Z,59.11
2023-07-30T06:01:25.203Z,58.81
2023-07-30T06:03:53.483Z,58.95
2023-07-30T06:06:28.086Z,58.50
2023-07-30T06:08:57.086Z,58.18
2023-07-30T06:11:26.324Z,58.15
2023-07-30T06:13:55.466Z,58.03
2023-07-30T06:16:24.058Z,57.85
2023-07-30T06:18:52.224Z,57.71
2023-07-30T06:21:20.281Z,56.89
2023-07-30T06:23:48.699Z,55.79
2023-07-30T06:26:17.102Z,55.69
2023-07-30T06:28:45.481Z,55.37
2023-07-30T06:31:14.492Z,55.71
2023-07-30T06:33:42.856Z,55.35
2023-07-30T06:36:11.186Z,55.08
2023-07-30T06:38:39.741Z,54.93
2023-07-30T06:41:08.155Z,54.84
2023-07-30T06:43:36.499Z,54.63
2023-07-30T06:46:05.054Z,54.05
2023-07-30T06:48:33.692Z,53.91
2023-07-30T06:51:03.083Z,53.90
2023-07-30T06:53:31.624Z,53.84
2023-07-30T06:55:59.916Z,53.66
2023-07-30T06:58:28.046Z,53.57
2023-07-30T07:00:56.437Z,53.41
2023-07-30T07:03:26.130Z,53.32
2023-07-30T07:06:03.531Z,53.31
2023-07-30T07:08:44.201Z,52.97
2023-07-30T07:11:12.614Z,52.39
2023-07-30T07:13:41.025Z,52.35
2023-07-30T07:16:10.069Z,52.52
2023-07-30T07:18:38.431Z,52.38
2023-07-30T07:21:06.710Z,51.82
2023-07-30T07:23:35.210Z,51.35
2023-07-30T07:26:03.508Z,51.51
2023-07-30T07:28:32.097Z,51.25
2023-07-30T07:31:00.645Z,51.22
2023-07-30T07:33:29.385Z,51.20
2023-07-30T07:36:08.115Z,51.17
2023-07-30T07:38:37.518Z,50.46
2023-07-30T07:41:05.868Z,49.33
2023-07-30T07:43:37.821Z,47.93
2023-07-30T07:46:11.313Z,48.21
2023-07-30T07:48:40.062Z,48.09
2023-07-30T07:51:10.731Z,47.97
2023-07-30T07:53:39.484Z,47.94
2023-07-30T07:56:08.396Z,48.26
2023-07-30T07:58:37.605Z,47.56
2023-07-30T08:01:05.895Z,47.25
2023-07-30T08:03:34.409Z,46.55
2023-07-30T08:06:03.005Z,45.18
2023-07-30T08:08:31.320Z,44.53
2023-07-30T08:11:00.098Z,44.62
2023-07-30T08:13:28.305Z,43.84
2023-07-30T08:15:56.440Z,44.22
2023-07-30T08:18:25.044Z,44.38
2023-07-30T08:20:53.308Z,44.18
2023-07-30T08:23:22.038Z,43.52
2023-07-30T08:25:51.846Z,42.71
2023-07-30T08:28:21.356Z,42.48
2023-07-30T08:30:49.852Z,42.77
2023-07-30T08:33:18.202Z,42.66
2023-07-30T08:35:46.622Z,41.43
2023-07-30T08:38:15.013Z,39.64
2023-07-30T08:40:44.057Z,39.87
2023-07-30T08:43:12.443Z,39.73
2023-07-30T08:45:40.831Z,38.84
2023-07-30T08:48:08.965Z,39.31
2023-07-30T08:50:38.438Z,38.80
2023-07-30T08:53:08.843Z,38.58
2023-07-30T08:55:38.381Z,37.89
2023-07-30T08:58:07.606Z,37.07
2023-07-30T09:00:38.356Z,36.77
2023-07-30T09:03:08.617Z,37.15
2023-07-30T09:05:38.036Z,35.44
2023-07-30T09:08:08.027Z,35.29
2023-07-30T09:10:36.424Z,35.86
2023-07-30T09:13:04.933Z,34.69
2023-07-30T09:15:35.046Z,34.63
2023-07-30T09:18:03.488Z,33.94
2023-07-30T09:20:39.756Z,33.10
2023-07-30T09:23:09.666Z,33.12
2023-07-30T09:25:39.065Z,32.71
2023-07-30T09:28:08.137Z,33.12
2023-07-30T09:30:36.775Z,33.23
2023-07-30T09:33:06.067Z,33.01
2023-07-30T09:35:35.822Z,32.79
2023-07-30T09:38:05.292Z,32.38
2023-07-30T09:40:40.092Z,32.09
2023-07-30T09:43:08.357Z,32.42
2023-07-30T09:45:38.245Z,31.97
2023-07-30T09:48:07.380Z,31.61
2023-07-30T09:50:36.844Z,30.59
2023-07-30T09:53:06.167Z,30.44
2023-07-30T09:55:34.369Z,30.29
2023-07-30T09:58:02.709Z,29.75
2023-07-30T10:00:31.600Z,30.45
2023-07-30T10:03:02.621Z,29.83
2023-07-30T10:05:37.745Z,28.83
2023-07-30T10:08:17.640Z,28.52
2023-07-30T10:10:46.092Z,27.28
2023-07-30T10:13:16.238Z,25.92
2023-07-30T10:15:45.417Z,25.05
2023-07-30T10:18:13.682Z,25.04
2023-07-30T10:20:47.129Z,24.86
2023-07-30T10:23:15.238Z,24.04
2023-07-30T10:25:54.003Z,23.52
2023-07-30T10:28:31.210Z,21.97
2023-07-30T10:31:09.416Z,22.18
2023-07-30T10:33:47.129Z,22.09
2023-07-30T10:36:18.839Z,22.13
2023-07-30T10:38:48.486Z,21.82
2023-07-30T10:41:18.739Z,20.87
2023-07-30T10:43:51.601Z,20.34
2023-07-30T10:46:20.683Z,19.75
2023-07-30T10:48:50.294Z,19.08
2023-07-30T10:51:20.478Z,19.04
2023-07-30T10:53:50.476Z,19.46
2023-07-30T10:56:23.160Z,19.14
2023-07-30T10:58:53.713Z,19.02
2023-07-30T11:01:26.942Z,19.05
2023-07-30T11:03:55.589Z,18.93
2023-07-30T11:06:25.799Z,18.82
2023-07-30T11:08:54.737Z,18.63
2023-07-30T11:11:25.786Z,18.52
2023-07-30T11:13:54.192Z,18.17
2023-07-30T11:16:22.804Z,18.43
2023-07-30T11:18:51.759Z,18.28
2023-07-30T11:21:20.431Z,18.34
2023-07-30T11:23:48.633Z,18.73
2023-07-30T11:26:20.931Z,19.38
2023-07-30T11:28:49.726Z,19.07
2023-07-30T11:31:25.947Z,19.73
2023-07-30T11:33:54.599Z,20.23
2023-07-30T11:36:26.783Z,20.49
2023-07-30T11:38:55.514Z,20.31
2023-07-30T11:41:26.032Z,20.03
2023-07-30T11:43:55.282Z,19.79
2023-07-30T11:46:26.144Z,19.46
2023-07-30T11:49:11.518Z,19.07
2023-07-30T11:51:40.303Z,18.47
2023-07-30T11:54:09.274Z,17.68
2023-07-30T11:56:37.715Z,17.77
2023-07-30T11:59:08.285Z,17.79
2023-07-30T12:01:38.559Z,17.13
2023-07-30T12:04:08.066Z,16.43
2023-07-30T12:06:43.281Z,15.67
2023-07-30T12:09:15.556Z,15.42
2023-07-30T12:11:56.932Z,15.59
2023-07-30T12:14:31.742Z,14.94
2023-07-30T12:17:04.436Z,14.98
2023-07-30T12:19:33.976Z,14.21
2023-07-30T12:22:02.200Z,14.80
2023-07-30T12:24:30.458Z,14.91
2023-07-30T12:26:58.955Z,14.24
2023-07-30T12:29:27.678Z,14.39
2023-07-30T12:31:57.834Z,14.87
2023-07-30T12:34:26.445Z,15.46
2023-07-30T12:36:59.800Z,15.73
2023-07-30T12:39:52.003Z,15.80
2023-07-30T12:42:20.807Z,16.37
2023-07-30T12:44:48.856Z,16.23
2023-07-30T12:47:17.520Z,16.65
2023-07-30T12:49:46.058Z,16.86
2023-07-30T12:52:14.682Z,16.87
2023-07-30T12:54:42.962Z,16.02
2023-07-30T12:57:11.188Z,16.07
2023-07-30T12:59:39.313Z,16.36
2023-07-30T13:02:08.181Z,16.70
2023-07-30T13:04:36.670Z,17.05
2023-07-30T13:07:05.197Z,17.10
2023-07-30T13:09:33.884Z,17.33
2023-07-30T13:12:02.458Z,17.94
2023-07-30T13:14:30.874Z,18.58
2023-07-30T13:16:59.633Z,18.50
2023-07-30T13:19:31.451Z,19.28
2023-07-30T13:22:00.338Z,19.09
2023-07-30T13:24:30.946Z,19.11
2023-07-30T13:26:59.668Z,19.72
2023-07-30T13:29:27.995Z,20.17
2023-07-30T13:31:56.727Z,20.10
2023-07-30T13:34:25.293Z,20.55
2023-07-30T13:36:54.161Z,20.80
2023-07-30T13:39:22.464Z,21.02
2023-07-30T13:41:50.651Z,21.14
2023-07-30T13:44:18.898Z,21.17
2023-07-30T13:46:47.085Z,21.35
2023-07-30T13:49:15.534Z,21.22
2023-07-30T13:51:44.047Z,21.26
2023-07-30T13:54:13.203Z,21.94
2023-07-30T13:56:41.607Z,22.85
2023-07-30T13:59:10.107Z,22.82
2023-07-30T14:01:38.799Z,23.23
2023-07-30T14:04:07.131Z,23.79
2023-07-30T14:06:35.620Z,24.13
2023-07-30T14:09:05.855Z,24.70
2023-07-30T14:11:34.519Z,24.73
2023-07-30T14:14:03.023Z,24.92
2023-07-30T14:16:48.087Z,26.21
2023-07-30T14:19:16.425Z,26.62
2023-07-30T14:21:45.083Z,26.96
2023-07-30T14:24:13.254Z,28.22
2023-07-30T14:26:41.751Z,31.35
2023-07-30T14:29:10.307Z,37.18
2023-07-30T14:31:41.265Z,40.17
2023-07-30T14:34:10.088Z,43.65
2023-07-30T14:36:38.291Z,45.28
2023-07-30T14:39:06.624Z,49.42
2023-07-30T14:41:35.355Z,50.22
2023-07-30T14:44:03.738Z,53.59
2023-07-30T14:46:32.117Z,52.91
2023-07-30T14:49:01.027Z,51.87
2023-07-30T14:51:29.423Z,51.75
2023-07-30T14:53:57.583Z,51.63
2023-07-30T14:56:27.919Z,51.89
2023-07-30T14:58:55.994Z,53.03
2023-07-30T15:01:39.213Z,53.63
2023-07-30T15:04:07.427Z,53.08
2023-07-30T15:06:37.003Z,53.24
2023-07-30T15:09:05.735Z,54.62
2023-07-30T15:11:34.020Z,54.07
2023-07-30T15:14:02.701Z,53.04
2023-07-30T15:16:30.820Z,53.90
2023-07-30T15:18:59.725Z,53.58
2023-07-30T15:21:30.888Z,53.99
2023-07-30T15:24:01.908Z,54.00
2023-07-30T15:26:30.268Z,53.03
2023-07-30T15:28:58.784Z,51.04
2023-07-30T15:31:28.191Z,49.53
2023-07-30T15:33:56.612Z,47.61
2023-07-30T15:36:25.290Z,45.75
2023-07-30T15:38:55.872Z,43.87
2023-07-30T15:41:24.370Z,42.34
2023-07-30T15:43:52.953Z,42.22
2023-07-30T15:46:21.970Z,42.54
2023-07-30T15:48:50.810Z,42.92
2023-07-30T15:51:19.524Z,43.39
2023-07-30T15:53:48.404Z,42.83
2023-07-30T15:56:16.672Z,42.30
2023-07-30T15:58:45.076Z,41.50
2023-07-30T16:01:13.538Z,40.81
2023-07-30T16:03:41.887Z,40.28
2023-07-30T16:06:10.586Z,40.31
2023-07-30T16:08:40.433Z,41.45
2023-07-30T16:11:12.287Z,41.86
2023-07-30T16:13:40.555Z,42.38
2023-07-30T16:16:13.491Z,43.17
2023-07-30T16:18:44.763Z,44.25
2023-07-30T16:21:12.907Z,45.12
2023-07-30T16:23:41.554Z,46.20
2023-07-30T16:26:10.655Z,46.97
2023-07-30T16:28:39.469Z,47.84
2023-07-30T16:31:08.272Z,48.60
2023-07-30T16:33:37.272Z,48.80
2023-07-30T16:36:08.279Z,49.24
2023-07-30T16:38:36.883Z,50.87
2023-07-30T16:41:04.949Z,51.62
2023-07-30T16:43:33.098Z,52.31
2023-07-30T16:46:05.011Z,52.82
2023-07-30T16:48:33.323Z,54.39
2023-07-30T16:51:02.517Z,54.81
2023-07-30T16:53:30.942Z,54.07
2023-07-30T16:55:59.239Z,52.43
2023-07-30T16:58:27.444Z,51.82
2023-07-30T17:01:05.253Z,51.02
2023-07-30T17:03:40.261Z,50.66
2023-07-30T17:06:08.841Z,49.81
2023-07-30T17:08:40.089Z,47.93
2023-07-30T17:11:09.443Z,47.86
2023-07-30T17:13:37.682Z,47.77
2023-07-30T17:16:07.484Z,48.95
2023-07-30T17:18:36.036Z,51.26
2023-07-30T17:21:05.542Z,53.18
2023-07-30T17:23:34.548Z,53.71
2023-07-30T17:26:03.487Z,54.51
2023-07-30T17:28:33.262Z,55.84
2023-07-30T17:31:02.770Z,56.77
2023-07-30T17:33:32.032Z,57.63
2023-07-30T17:36:04.230Z,58.69
2023-07-30T17:38:32.489Z,58.95
2023-07-30T17:41:00.639Z,59.60
2023-07-30T17:43:29.242Z,60.03
2023-07-30T17:45:57.661Z,60.75
2023-07-30T17:48:28.682Z,61.79
2023-07-30T17:50:57.218Z,63.18
2023-07-30T17:53:25.905Z,62.91
2023-07-30T17:55:54.100Z,63.00
2023-07-30T17:58:24.617Z,63.30
2023-07-30T18:00:52.950Z,63.35
2023-07-30T18:03:21.312Z,64.43
2023-07-30T18:05:49.831Z,64.48
2023-07-30T18:08:18.336Z,64.31
2023-07-30T18:10:49.508Z,64.69
2023-07-30T18:13:19.020Z,65.22
2023-07-30T18:15:47.314Z,65.23
2023-07-30T18:18:15.751Z,66.03
2023-07-30T18:20:44.054Z,67.64
2023-07-30T18:23:13.787Z,67.02
2023-07-30T18:25:42.227Z,67.34
2023-07-30T18:28:10.581Z,67.72
2023-07-30T18:30:40.233Z,68.63
2023-07-30T18:33:11.098Z,69.78
2023-07-30T18:35:39.927Z,69.90
2023-07-30T18:38:10.832Z,70.34
2023-07-30T18:40:41.567Z,70.37
2023-07-30T18:43:10.029Z,70.62
2023-07-30T18:45:38.724Z,70.70
2023-07-30T18:48:07.510Z,70.64
2023-07-30T18:50:38.046Z,71.06
2023-07-30T18:53:06.478Z,70.87
2023-07-30T18:55:36.092Z,70.93
2023-07-30T18:58:04.280Z,71.23
2023-07-30T19:00:33.626Z,71.60
2023-07-30T19:03:01.927Z,71.93
2023-07-30T19:05:30.401Z,71.90
2023-07-30T19:08:00.459Z,71.72
2023-07-30T19:10:28.861Z,71.99
2023-07-30T19:12:58.598Z,72.22
2023-07-30T19:15:28.027Z,72.24
2023-07-30T19:17:56.257Z,72.18
2023-07-30T19:20:24.725Z,72.09
2023-07-30T19:22:53.155Z,72.06
2023-07-30T19:25:22.458Z,72.11
2023-07-30T19:27:50.914Z,72.31
2023-07-30T19:30:20.216Z,72.13
2023-07-30T19:32:48.537Z,72.12
2023-07-30T19:35:16.759Z,72.37
2023-07-30T19:37:46.055Z,72.59
2023-07-30T19:40:14.666Z,72.46
2023-07-30T19:42:42.874Z,72.37
2023-07-30T19:45:11.597Z,72.55
2023-07-30T19:47:40.766Z,72.85
2023-07-30T19:50:16.534Z,72.85
2023-07-30T19:52:47.043Z,73.77
2023-07-30T19:55:15.500Z,74.07
2023-07-30T19:57:43.793Z,71.96
2023-07-30T20:00:12.938Z,70.47
2023-07-30T20:02:41.749Z,69.51
2023-07-30T20:05:10.232Z,68.82
2023-07-30T20:07:38.543Z,68.79
2023-07-30T20:10:07.541Z,68.69
2023-07-30T20:12:35.646Z,68.41
2023-07-30T20:15:04.778Z,67.77
2023-07-30T20:17:33.175Z,67.35
2023-07-30T20:20:01.397Z,67.41
2023-07-30T20:22:29.607Z,67.75
2023-07-30T20:24:57.893Z,67.44
2023-07-30T20:27:26.154Z,67.33
2023-07-30T20:29:54.887Z,67.22
2023-07-30T20:32:25.354Z,67.46
2023-07-30T20:34:53.545Z,67.39
2023-07-30T20:37:21.752Z,66.63
2023-07-30T20:39:50.068Z,66.44
2023-07-30T20:42:18.231Z,66.38
2023-07-30T20:44:46.534Z,66.35
2023-07-30T20:47:14.568Z,66.37
2023-07-30T20:49:44.246Z,66.40
2023-07-30T20:52:12.500Z,66.16
2023-07-30T20:54:40.740Z,66.17
2023-07-30T20:57:09.171Z,65.92
2023-07-30T20:59:38.085Z,65.84
2023-07-30T21:02:06.636Z,65.74
2023-07-30T21:04:35.591Z,65.60
2023-07-30T21:07:04.427Z,65.00
2023-07-30T21:09:32.551Z,64.98
2023-07-30T21:12:00.610Z,64.87
2023-07-30T21:14:29.303Z,64.57
2023-07-30T21:16:57.434Z,64.19
2023-07-30T21:19:26.695Z,64.27
2023-07-30T21:21:55.620Z,64.26
2023-07-30T21:24:23.846Z,64.29
2023-07-30T21:26:52.026Z,64.20
2023-07-30T21:29:20.484Z,64.31
2023-07-30T21:31:49.311Z,64.33
2023-07-30T21:34:17.677Z,64.22
2023-07-30T21:36:46.085Z,64.00
2023-07-30T21:39:15.142Z,63.74
2023-07-30T21:41:43.545Z,63.82
2023-07-30T21:44:11.612Z,63.79
2023-07-30T21:46:40.174Z,63.80
2023-07-30T21:49:08.662Z,63.96
2023-07-30T21:51:37.187Z,63.85
2023-07-30T21:54:05.492Z,63.74
2023-07-30T21:56:33.654Z,64.28
2023-07-30T21:59:01.826Z,64.51
2023-07-30T22:01:29.915Z,64.65
2023-07-30T22:04:00.414Z,64.89
2023-07-30T22:06:28.852Z,65.20
2023-07-30T22:08:57.275Z,65.44
2023-07-30T22:11:26.964Z,65.43
2023-07-30T22:13:56.333Z,65.68
2023-07-30T22:16:24.665Z,65.68
2023-07-30T22:18:52.747Z,65.50
2023-07-30T22:21:21.009Z,65.62
2023-07-30T22:23:51.884Z,65.61
2023-07-30T22:26:20.097Z,65.56
2023-07-30T22:28:48.757Z,65.50
2023-07-30T22:31:17.159Z,65.36
2023-07-30T22:33:45.555Z,65.80
2023-07-30T22:36:13.760Z,65.81
2023-07-30T22:38:41.917Z,65.76
2023-07-30T22:41:10.143Z,65.90
2023-07-30T22:43:38.166Z,66.06
2023-07-30T22:46:06.603Z,66.19
2023-07-30T22:48:34.923Z,66.90
2023-07-30T22:51:03.863Z,67.78
2023-07-30T22:53:32.097Z,68.62
2023-07-30T22:56:00.154Z,68.51
2023-07-30T22:58:28.425Z,68.46
2023-07-30T23:00:56.872Z,68.47
2023-07-30T23:03:25.160Z,68.62
2023-07-30T23:05:53.716Z,69.20
2023-07-30T23:08:22.106Z,70.30
2023-07-30T23:10:53.707Z,70.83
2023-07-30T23:13:21.835Z,70.98
2023-07-30T23:15:50.207Z,71.50
2023-07-30T23:18:18.729Z,71.48
2023-07-30T23:20:48.881Z,71.46
2023-07-30T23:23:17.270Z,71.35
2023-07-30T23:25:45.608Z,71.17
2023-07-30T23:28:14.053Z,71.18
2023-07-30T23:30:42.887Z,71.25
2023-07-30T23:33:11.285Z,71.12
2023-07-30T23:35:39.679Z,71.25
2023-07-30T23:38:08.370Z,71.52
2023-07-30T23:40:36.696Z,71.66
2023-07-30T23:43:07.104Z,72.18
2023-07-30T23:45:35.439Z,72.58
2023-07-30T23:48:04.273Z,72.78
2023-07-30T23:50:32.995Z,73.18
2023-07-30T23:53:01.319Z,73.92
2023-07-30T23:55:29.453Z,74.45
2023-07-30T23:57:57.726Z,74.07
